Hico, West Virginia
Current Conditions -  °F | °C
As of 6:51 AM on Monday 24 Nov 2014 (Local Time) from KBKW Reporting Station
Clear Clear  
Wind Chill: 57°   Ceiling: Unl
Heat Index: 57°   Visibility: 10mi
Dew Point: 46°   Wind: 12mph
Humidity: 67%   Direction: 200°SSW
Pressure: 29.62"   Gusts: 24mph
Location:  38.12°N, 81.01°W
Report Text: KBKW 241151Z AUTO 20010G21KT 10SM CLR 14/08 A2962 RMK AO2 SLP018 70026 T01390078 10150 20133 53003
Loading
Personal Weather Stations






























Interactive Weather Map New forecast layout! Learn more

10-Day Weather Forecast

Advertisements
Track Severe Weather on mobile